Hitachimaru — JD2063 — position and weather

sailwx.info

Track history (hours):
 
Tides and Currents Weather Stations Pressure Air Temp Water Temp Dewpoint Dewpoint Depression Visibility Wind Speed Wind Dir Waves Ship Positions

Hitachimaru

Last reported at 2015-Apr-28 15:33 UTC. Time now 2015-Apr-28 15:59 UTC.
Position N 35°22' E 139°51'.

Length 83 m; draft 4.5 m.

Type: Cargo ship. MMSI: 431301756.

Date/timePositionNaut miles runAvg speedWind from/ knotsBaromVisibWave heightAir tempDewpointWater temp
2015-Apr-28 15:33N 35°22' E 139°51'0 0.0
2015-Apr-28 14:33N 35°22' E 139°51'2 2.0
2015-Apr-28 13:34N 35°23' E 139°49'0 0.0
2015-Apr-28 12:33N 35°23' E 139°49'0 0.0
2015-Apr-28 11:33N 35°23' E 139°49'0 0.0
2015-Apr-28 10:33N 35°23' E 139°49'0 0.0
2015-Apr-28 09:24N 35°23' E 139°49'0 0.0
2015-Apr-28 08:30N 35°23' E 139°49'0 0.0
2015-Apr-28 07:33N 35°23' E 139°49'8 8.0
2015-Apr-28 06:33N 35°30' E 139°50'5 4.9
2015-Apr-28 05:33N 35°27' E 139°46'7 7.4
2015-Apr-28 04:33N 35°23' E 139°38'0 0.0
2015-Apr-28 03:27N 35°23' E 139°38'0 0.0
2015-Apr-28 02:33N 35°23' E 139°38'0 0.0
2015-Apr-28 01:33N 35°23' E 139°38'0 0.0
2015-Apr-28 00:33N 35°23' E 139°38'0 0.0
2015-Apr-27 23:33N 35°23' E 139°38'0 0.1
2015-Apr-27 22:33N 35°23' E 139°38'1 1.0
2015-Apr-27 21:32N 35°23' E 139°40'0 0.0
2015-Apr-27 20:32N 35°23' E 139°40'0 0.0
2015-Apr-27 19:32N 35°23' E 139°40'0 0.0
2015-Apr-27 18:32N 35°23' E 139°40'2 1.7
2015-Apr-27 17:33N 35°24' E 139°42'1010.1
2015-Apr-27 16:33N 35°30' E 139°51'1010.0
2015-Apr-27 15:33N 35°38' E 139°59'3 2.4
2015-Apr-27 14:30N 35°40' E 139°57'0 0.0
2015-Apr-27 13:30N 35°40' E 139°57'0 0.0
2015-Apr-27 12:30N 35°40' E 139°57'3 2.8
2015-Apr-27 11:33N 35°38' E 139°59'1 1.0
2015-Apr-27 10:27N 35°37' E 139°58'0 0.0
2015-Apr-27 09:33N 35°37' E 139°58'0 0.0
2015-Apr-27 08:27N 35°37' E 139°58'0 0.0
2015-Apr-27 07:27N 35°37' E 139°58'0 0.0
2015-Apr-27 06:33N 35°37' E 139°58'0 0.0
2015-Apr-27 05:33N 35°37' E 139°58'0 0.1
2015-Apr-27 04:33N 35°37' E 139°58'9 9.4
2015-Apr-27 03:34N 35°29' E 139°52'1211.7
2015-Apr-27 02:34N 35°19' E 139°44'1110.8
2015-Apr-27 01:34N 35°08' E 139°45'1311.1
2015-Apr-27 00:25N 34°59' E 139°35'23510.2
2015-Apr-26 01:18N 34°00' E 134°59'912.2
2015-Apr-26 00:33N 34°09' E 134°58'2311.5
2015-Apr-25 22:33N 34°30' E 135°11'1211.8
2015-Apr-25 21:33N 34°36' E 135°23'4 1.7
2015-Apr-25 19:09N 34°34' E 135°27'0 0.0
2015-Apr-25 18:33N 34°34' E 135°27'0 0.0
2015-Apr-25 17:33N 34°34' E 135°27'0 0.0
2015-Apr-25 16:27N 34°34' E 135°27'0 0.0
2015-Apr-25 15:27N 34°34' E 135°27'0 0.0
2015-Apr-25 14:27N 34°34' E 135°27'0 0.0
2015-Apr-25 11:21N 34°34' E 135°27'0 0.0
2015-Apr-25 08:21N 34°34' E 135°27'0 0.2
2015-Apr-25 07:32N 34°34' E 135°27'1 0.2
2015-Apr-25 00:33N 34°35' E 135°28'0 0.0
2015-Apr-24 22:19N 34°35' E 135°28'2 2.0
2015-Apr-24 21:33N 34°34' E 135°27'0 0.0
2015-Apr-24 20:08N 34°34' E 135°27'0 0.0
2015-Apr-24 14:20N 34°34' E 135°27'0 0.0
2015-Apr-24 13:32N 34°34' E 135°27'2 0.2
2015-Apr-24 07:04N 34°35' E 135°28'0 0.0
2015-Apr-24 05:28N 34°35' E 135°28'0 0.0
2015-Apr-24 04:28N 34°35' E 135°28'0 0.0
2015-Apr-24 02:10N 34°35' E 135°28'0 0.0
2015-Apr-23 22:04N 34°35' E 135°28'0 0.0
2015-Apr-23 21:10N 34°35' E 135°28'0 0.0
2015-Apr-23 17:03N 34°35' E 135°28'0 0.0
2015-Apr-23 16:27N 34°35' E 135°28'0 0.0
2015-Apr-23 15:33N 34°35' E 135°28'0 0.0
2015-Apr-23 14:09N 34°35' E 135°28'0 0.0
2015-Apr-23 13:27N 34°35' E 135°28'0 0.0
2015-Apr-23 12:33N 34°35' E 135°28'0 0.0
2015-Apr-23 11:09N 34°35' E 135°28'0 0.0
2015-Apr-23 08:33N 34°35' E 135°28'0 0.0
2015-Apr-23 07:33N 34°35' E 135°28'0 0.0
2015-Apr-23 06:31N 34°35' E 135°28'1 0.0
2015-Apr-22 14:32N 34°35' E 135°27'9 9.6
2015-Apr-22 13:33N 34°32' E 135°16'1312.3
2015-Apr-22 12:31N 34°23' E 135°05'1212.3
2015-Apr-22 11:33N 34°12' E 134°60'230 9.5
2015-Apr-21 11:26N 35°00' E 139°33'1111.9
2015-Apr-21 10:33N 35°07' E 139°42'1110.8
2015-Apr-21 09:33N 35°17' E 139°44'8 8.4
2015-Apr-21 08:34N 35°25' E 139°47'3 3.0
2015-Apr-21 07:32N 35°24' E 139°51'0 0.0
2015-Apr-21 06:32N 35°24' E 139°51'0 0.0
2015-Apr-21 05:29N 35°24' E 139°51'0 0.0
2015-Apr-21 04:23N 35°24' E 139°51'0 0.0
2015-Apr-21 03:32N 35°24' E 139°51'0 0.0
2015-Apr-21 02:29N 35°24' E 139°51'0 0.0
2015-Apr-21 01:29N 35°24' E 139°51'0 0.1
2015-Apr-21 00:29N 35°24' E 139°51'0 0.0
2015-Apr-20 23:32N 35°24' E 139°51'0 0.0
2015-Apr-20 22:32N 35°24' E 139°51'0 0.0
2015-Apr-20 21:32N 35°24' E 139°51'0 0.0
2015-Apr-20 20:33N 35°24' E 139°51'0 0.0
2015-Apr-20 19:31N 35°24' E 139°51'0 0.0
2015-Apr-20 18:33N 35°24' E 139°51'0 0.0
2015-Apr-20 17:31N 35°24' E 139°51'0 0.0
2015-Apr-20 16:32N 35°24' E 139°51'0 0.0
2015-Apr-20 15:26N 35°24' E 139°51'0 0.1
2015-Apr-20 14:32N 35°24' E 139°51'0 0.0
2015-Apr-20 13:32N 35°24' E 139°51'0 0.1
2015-Apr-20 12:33N 35°24' E 139°51'0 0.0
2015-Apr-20 11:22N 35°24' E 139°51'0 0.0
2015-Apr-20 10:32N 35°24' E 139°51'0 0.0
2015-Apr-20 09:33N 35°24' E 139°51'0 0.0
2015-Apr-20 08:33N 35°24' E 139°51'0 0.1
2015-Apr-20 07:33N 35°24' E 139°51'0 0.1
2015-Apr-20 06:33N 35°24' E 139°51'0 0.0
2015-Apr-20 05:33N 35°24' E 139°51'0 0.0
2015-Apr-20 04:32N 35°24' E 139°51'0 0.0
2015-Apr-20 03:33N 35°24' E 139°51'0 0.0
2015-Apr-20 02:32N 35°24' E 139°51'0 0.0
2015-Apr-20 01:33N 35°24' E 139°51'0 0.0
2015-Apr-20 00:33N 35°24' E 139°51'0 0.0
2015-Apr-19 23:29N 35°24' E 139°51'0 0.0
2015-Apr-19 22:32N 35°24' E 139°51'0 0.0
2015-Apr-19 21:26N 35°24' E 139°51'0 0.0
2015-Apr-19 20:32N 35°24' E 139°51'0 0.0
2015-Apr-19 19:26N 35°24' E 139°51'0 0.0
2015-Apr-19 18:32N 35°24' E 139°51'0 0.0
2015-Apr-19 17:29N 35°24' E 139°51'0 0.0
2015-Apr-19 16:32N 35°24' E 139°51'0 0.0
2015-Apr-19 15:29N 35°24' E 139°51'0 0.0
2015-Apr-19 14:29N 35°24' E 139°51'0 0.1
2015-Apr-19 13:32N 35°24' E 139°51'0 0.1
2015-Apr-19 12:32N 35°24' E 139°51'0 0.0
2015-Apr-19 11:32N 35°24' E 139°51'0 0.0
2015-Apr-19 10:32N 35°24' E 139°51'0 0.1
2015-Apr-19 09:32N 35°24' E 139°51'1 1.4
2015-Apr-19 08:34N 35°22' E 139°52'1 1.5
2015-Apr-19 07:34N 35°22' E 139°53'0 0.0
2015-Apr-19 06:33N 35°22' E 139°53'0 0.0
2015-Apr-19 05:33N 35°22' E 139°53'0 0.0
2015-Apr-19 04:31N 35°22' E 139°53'0 0.0
2015-Apr-19 03:30N 35°22' E 139°53'0 0.0
2015-Apr-19 02:33N 35°22' E 139°53'0 0.0
2015-Apr-19 01:33N 35°22' E 139°53'0 0.0
2015-Apr-19 00:30N 35°22' E 139°53'0 0.0
2015-Apr-18 23:30N 35°22' E 139°53'0 0.0
2015-Apr-18 22:33N 35°22' E 139°53'0 0.0
2015-Apr-18 21:32N 35°22' E 139°53'3 3.3
2015-Apr-18 20:33N 35°24' E 139°50'0 0.1
2015-Apr-18 19:32N 35°24' E 139°50'0 0.0
2015-Apr-18 18:32N 35°24' E 139°50'0 0.0
2015-Apr-18 17:32N 35°24' E 139°50'0 0.0
2015-Apr-18 16:32N 35°24' E 139°50'  
Track history (hours):
 
Tides and Currents Weather Stations Pressure Air Temp Water Temp Dewpoint Dewpoint Depression Visibility Wind Speed Wind Dir Waves Ship Positions

Hitachimaru

Last reported at 2015-Apr-28 15:33 UTC. Time now 2015-Apr-28 15:59 UTC.
Position N 35°22' E 139°51'.

Length 83 m; draft 4.5 m.

Type: Cargo ship. MMSI: 431301756.

Date/timePositionNaut miles runAvg speedWind from/ knotsBaromVisibWave heightAir tempDewpointWater temp
2015-Apr-28 15:33N 35°22' E 139°51'0 0.0
2015-Apr-28 14:33N 35°22' E 139°51'2 2.0
2015-Apr-28 13:34N 35°23' E 139°49'0 0.0
2015-Apr-28 12:33N 35°23' E 139°49'0 0.0
2015-Apr-28 11:33N 35°23' E 139°49'0 0.0
2015-Apr-28 10:33N 35°23' E 139°49'0 0.0
2015-Apr-28 09:24N 35°23' E 139°49'0 0.0
2015-Apr-28 08:30N 35°23' E 139°49'0 0.0
2015-Apr-28 07:33N 35°23' E 139°49'8 8.0
2015-Apr-28 06:33N 35°30' E 139°50'5 4.9
2015-Apr-28 05:33N 35°27' E 139°46'7 7.4
2015-Apr-28 04:33N 35°23' E 139°38'0 0.0
2015-Apr-28 03:27N 35°23' E 139°38'0 0.0
2015-Apr-28 02:33N 35°23' E 139°38'0 0.0
2015-Apr-28 01:33N 35°23' E 139°38'0 0.0
2015-Apr-28 00:33N 35°23' E 139°38'0 0.0
2015-Apr-27 23:33N 35°23' E 139°38'0 0.1
2015-Apr-27 22:33N 35°23' E 139°38'1 1.0
2015-Apr-27 21:32N 35°23' E 139°40'0 0.0
2015-Apr-27 20:32N 35°23' E 139°40'0 0.0
2015-Apr-27 19:32N 35°23' E 139°40'0 0.0
2015-Apr-27 18:32N 35°23' E 139°40'2 1.7
2015-Apr-27 17:33N 35°24' E 139°42'1010.1
2015-Apr-27 16:33N 35°30' E 139°51'1010.0
2015-Apr-27 15:33N 35°38' E 139°59'3 2.4
2015-Apr-27 14:30N 35°40' E 139°57'0 0.0
2015-Apr-27 13:30N 35°40' E 139°57'0 0.0
2015-Apr-27 12:30N 35°40' E 139°57'3 2.8
2015-Apr-27 11:33N 35°38' E 139°59'1 1.0
2015-Apr-27 10:27N 35°37' E 139°58'0 0.0
2015-Apr-27 09:33N 35°37' E 139°58'0 0.0
2015-Apr-27 08:27N 35°37' E 139°58'0 0.0
2015-Apr-27 07:27N 35°37' E 139°58'0 0.0
2015-Apr-27 06:33N 35°37' E 139°58'0 0.0
2015-Apr-27 05:33N 35°37' E 139°58'0 0.1
2015-Apr-27 04:33N 35°37' E 139°58'9 9.4
2015-Apr-27 03:34N 35°29' E 139°52'1211.7
2015-Apr-27 02:34N 35°19' E 139°44'1110.8
2015-Apr-27 01:34N 35°08' E 139°45'1311.1
2015-Apr-27 00:25N 34°59' E 139°35'23510.2
2015-Apr-26 01:18N 34°00' E 134°59'912.2
2015-Apr-26 00:33N 34°09' E 134°58'2311.5
2015-Apr-25 22:33N 34°30' E 135°11'1211.8
2015-Apr-25 21:33N 34°36' E 135°23'4 1.7
2015-Apr-25 19:09N 34°34' E 135°27'0 0.0
2015-Apr-25 18:33N 34°34' E 135°27'0 0.0
2015-Apr-25 17:33N 34°34' E 135°27'0 0.0
2015-Apr-25 16:27N 34°34' E 135°27'0 0.0
2015-Apr-25 15:27N 34°34' E 135°27'0 0.0
2015-Apr-25 14:27N 34°34' E 135°27'0 0.0
2015-Apr-25 11:21N 34°34' E 135°27'0 0.0
2015-Apr-25 08:21N 34°34' E 135°27'0 0.2
2015-Apr-25 07:32N 34°34' E 135°27'1 0.2
2015-Apr-25 00:33N 34°35' E 135°28'0 0.0
2015-Apr-24 22:19N 34°35' E 135°28'2 2.0
2015-Apr-24 21:33N 34°34' E 135°27'0 0.0
2015-Apr-24 20:08N 34°34' E 135°27'0 0.0
2015-Apr-24 14:20N 34°34' E 135°27'0 0.0
2015-Apr-24 13:32N 34°34' E 135°27'2 0.2
2015-Apr-24 07:04N 34°35' E 135°28'0 0.0
2015-Apr-24 05:28N 34°35' E 135°28'0 0.0
2015-Apr-24 04:28N 34°35' E 135°28'0 0.0
2015-Apr-24 02:10N 34°35' E 135°28'0 0.0
2015-Apr-23 22:04N 34°35' E 135°28'0 0.0
2015-Apr-23 21:10N 34°35' E 135°28'0 0.0
2015-Apr-23 17:03N 34°35' E 135°28'0 0.0
2015-Apr-23 16:27N 34°35' E 135°28'0 0.0
2015-Apr-23 15:33N 34°35' E 135°28'0 0.0
2015-Apr-23 14:09N 34°35' E 135°28'0 0.0
2015-Apr-23 13:27N 34°35' E 135°28'0 0.0
2015-Apr-23 12:33N 34°35' E 135°28'0 0.0
2015-Apr-23 11:09N 34°35' E 135°28'0 0.0
2015-Apr-23 08:33N 34°35' E 135°28'0 0.0
2015-Apr-23 07:33N 34°35' E 135°28'0 0.0
2015-Apr-23 06:31N 34°35' E 135°28'1 0.0
2015-Apr-22 14:32N 34°35' E 135°27'9 9.6
2015-Apr-22 13:33N 34°32' E 135°16'1312.3
2015-Apr-22 12:31N 34°23' E 135°05'1212.3
2015-Apr-22 11:33N 34°12' E 134°60'230 9.5
2015-Apr-21 11:26N 35°00' E 139°33'1111.9
2015-Apr-21 10:33N 35°07' E 139°42'1110.8
2015-Apr-21 09:33N 35°17' E 139°44'8 8.4
2015-Apr-21 08:34N 35°25' E 139°47'3 3.0
2015-Apr-21 07:32N 35°24' E 139°51'0 0.0
2015-Apr-21 06:32N 35°24' E 139°51'0 0.0
2015-Apr-21 05:29N 35°24' E 139°51'0 0.0
2015-Apr-21 04:23N 35°24' E 139°51'0 0.0
2015-Apr-21 03:32N 35°24' E 139°51'0 0.0
2015-Apr-21 02:29N 35°24' E 139°51'0 0.0
2015-Apr-21 01:29N 35°24' E 139°51'0 0.1
2015-Apr-21 00:29N 35°24' E 139°51'0 0.0
2015-Apr-20 23:32N 35°24' E 139°51'0 0.0
2015-Apr-20 22:32N 35°24' E 139°51'0 0.0
2015-Apr-20 21:32N 35°24' E 139°51'0 0.0
2015-Apr-20 20:33N 35°24' E 139°51'0 0.0
2015-Apr-20 19:31N 35°24' E 139°51'0 0.0
2015-Apr-20 18:33N 35°24' E 139°51'0 0.0
2015-Apr-20 17:31N 35°24' E 139°51'0 0.0
2015-Apr-20 16:32N 35°24' E 139°51'0 0.0
2015-Apr-20 15:26N 35°24' E 139°51'0 0.1
2015-Apr-20 14:32N 35°24' E 139°51'0 0.0
2015-Apr-20 13:32N 35°24' E 139°51'0 0.1
2015-Apr-20 12:33N 35°24' E 139°51'0 0.0
2015-Apr-20 11:22N 35°24' E 139°51'0 0.0
2015-Apr-20 10:32N 35°24' E 139°51'0 0.0
2015-Apr-20 09:33N 35°24' E 139°51'0 0.0
2015-Apr-20 08:33N 35°24' E 139°51'0 0.1
2015-Apr-20 07:33N 35°24' E 139°51'0 0.1
2015-Apr-20 06:33N 35°24' E 139°51'0 0.0
2015-Apr-20 05:33N 35°24' E 139°51'0 0.0
2015-Apr-20 04:32N 35°24' E 139°51'0 0.0
2015-Apr-20 03:33N 35°24' E 139°51'0 0.0
2015-Apr-20 02:32N 35°24' E 139°51'0 0.0
2015-Apr-20 01:33N 35°24' E 139°51'0 0.0
2015-Apr-20 00:33N 35°24' E 139°51'0 0.0
2015-Apr-19 23:29N 35°24' E 139°51'0 0.0
2015-Apr-19 22:32N 35°24' E 139°51'0 0.0
2015-Apr-19 21:26N 35°24' E 139°51'0 0.0
2015-Apr-19 20:32N 35°24' E 139°51'0 0.0
2015-Apr-19 19:26N 35°24' E 139°51'0 0.0
2015-Apr-19 18:32N 35°24' E 139°51'0 0.0
2015-Apr-19 17:29N 35°24' E 139°51'0 0.0
2015-Apr-19 16:32N 35°24' E 139°51'0 0.0
2015-Apr-19 15:29N 35°24' E 139°51'0 0.0
2015-Apr-19 14:29N 35°24' E 139°51'0 0.1
2015-Apr-19 13:32N 35°24' E 139°51'0 0.1
2015-Apr-19 12:32N 35°24' E 139°51'0 0.0
2015-Apr-19 11:32N 35°24' E 139°51'0 0.0
2015-Apr-19 10:32N 35°24' E 139°51'0 0.1
2015-Apr-19 09:32N 35°24' E 139°51'1 1.4
2015-Apr-19 08:34N 35°22' E 139°52'1 1.5
2015-Apr-19 07:34N 35°22' E 139°53'0 0.0
2015-Apr-19 06:33N 35°22' E 139°53'0 0.0
2015-Apr-19 05:33N 35°22' E 139°53'0 0.0
2015-Apr-19 04:31N 35°22' E 139°53'0 0.0
2015-Apr-19 03:30N 35°22' E 139°53'0 0.0
2015-Apr-19 02:33N 35°22' E 139°53'0 0.0
2015-Apr-19 01:33N 35°22' E 139°53'0 0.0
2015-Apr-19 00:30N 35°22' E 139°53'0 0.0
2015-Apr-18 23:30N 35°22' E 139°53'0 0.0
2015-Apr-18 22:33N 35°22' E 139°53'0 0.0
2015-Apr-18 21:32N 35°22' E 139°53'3 3.3
2015-Apr-18 20:33N 35°24' E 139°50'0 0.1
2015-Apr-18 19:32N 35°24' E 139°50'0 0.0
2015-Apr-18 18:32N 35°24' E 139°50'0 0.0
2015-Apr-18 17:32N 35°24' E 139°50'0 0.0
2015-Apr-18 16:32N 35°24' E 139°50'  

Dump ship's entire track history